KMOT/MOT METAR and TAF weather

Enter ICAO airport designator
Station Type Date Time Source
KMOT METAR 2020/01/21 08:54 UTC NOAA

KMOT 210854Z AUTO 19006KT 10SM CLR M07/M12 A2988 RMK AO2 PK WND 17026/0822 SLP151 T10721117 58028


Station Type Date Time Source
KMOT Decoded METAR 2020/01/21 08:54 UTC NOAA

MINOT INTERNATIONAL AIRPORT , ND, United States (KMOT) 48-16N 101-17W 519M
Jan 21, 2020 - 03:54 AM EST / 2020.01.21 0854 UTC
Wind: from the S (190 degrees) at 7 MPH (6 KT):0
Visibility: 10 mile(s):0
Sky conditions: clear
Temperature: 19.0 F (-7.2 C)
Windchill: 10 F (-12 C):1
Dew Point: 10.9 F (-11.7 C)
Relative Humidity: 70%
Pressure (altimeter): 29.88 in. Hg (1011 hPa)
Pressure tendency: 0.08 inches (2.8 hPa) lower than three hours ago
ob: KMOT 210854Z AUTO 19006KT 10SM CLR M07/M12 A2988 RMK AO2 PK WND 17026/0822 SLP151 T10721117 58028
cycle: 9

Station Type Date Time Source
KMOT TAF 2020/01/21 07:54 UTC NOAA

TAF
AMD KMOT 210653Z 2107/2206 22015G25KT P6SM BKN250
FM211900 25012KT P6SM BKN250

Example: see airport list